Home > Products > Valid Products > MTR

000
SAUS44 KLCH 281154
MTRP92
METAR KP92 281153Z AUTO 00000KT 10/07 A3020 RMK AO1 SLP225 60002
70024 T01000072 10156 20100 53017





000
SAUS44 KLCH 281055
MTRP92
METAR KP92 281053Z AUTO 00000KT 10/07 A3017 RMK AO1 SLP216 T01000072





000
SAUS44 KLCH 281055
MTRP92
METAR KP92 281053Z AUTO 00000KT 10/07 A3017 RMK AO1 SLP216 T01000072





000
SAUS44 KLCH 280955
MTRP92
METAR KP92 280953Z AUTO 00000KT 10/07 A3016 RMK AO1 SLP211 P0001
T01000072





000
SAUS44 KLCH 280854
MTRP92
METAR KP92 280853Z AUTO 00000KT 11/07 A3015 RMK AO1 SLP208 60001
T01060067 58003





000
SAUS44 KLCH 280854
MTRP92
METAR KP92 280853Z AUTO 00000KT 11/07 A3015 RMK AO1 SLP208 60001
T01060067 58003





000
SAUS44 KLCH 280754
MTRP92
METAR KP92 280753Z AUTO VRB03KT 12/07 A3015 RMK AO1 SLP209 P0001
T01170067





000
SAUS44 KLCH 280754
MTRP92
METAR KP92 280753Z AUTO VRB03KT 12/07 A3015 RMK AO1 SLP209 P0001
T01170067





000
SAUS44 KLCH 280654
MTRP92
METAR KP92 280653Z AUTO VRB03KT 13/07 A3016 RMK AO1 SLP211 T01330072





000
SAUS44 KLCH 280554
MTRP92
METAR KP92 280553Z AUTO VRB05KT 16/07 A3015 RMK AO1 SLP210 P0001
60005 T01560072 10178 20156 401940094 53015





000
SAUS44 KLCH 280554
MTRP92
METAR KP92 280553Z AUTO VRB05KT 16/07 A3015 RMK AO1 SLP210 P0001
60005 T01560072 10178 20156 401940094 53015





000
SAUS44 KLCH 280454
MTRP92
METAR KP92 280453Z AUTO VRB06KT 18/10 A3014 RMK AO1 SLP205 P0001
T01780100





000
SAUS44 KLCH 280454
MTRP92
METAR KP92 280453Z AUTO VRB06KT 18/10 A3014 RMK AO1 SLP205 P0001
T01780100





000
SAUS44 KLCH 280354
MTRP92
METAR KP92 280353Z AUTO 27006KT 17/14 A3012 RMK AO1 SLP199 T01720139





000
SAUS44 KLCH 280354
MTRP92
METAR KP92 280353Z AUTO 27006KT 17/14 A3012 RMK AO1 SLP199 T01720139





000
SAUS44 KLCH 280255
MTRP92
METAR KP92 280253Z AUTO 28007KT 17/13 A3011 RMK AO1 SLP195 P0001
60003 T01720133





000
SAUS44 KLCH 280255
MTRP92
METAR KP92 280253Z AUTO 28007KT 17/13 A3011 RMK AO1 SLP195 P0001
60003 T01720133





000
SAUS44 KLCH 280154
MTRP92
METAR KP92 280153Z AUTO 27007KT 17/12 A3008 RMK AO1 SLP184 P0001
T01720122





000
SAUS44 KLCH 280055
MTRP92
METAR KP92 280053Z AUTO 26009KT 17/12 A3005 RMK AO1 SLP175 P0001
T01720122





000
SAUS44 KLCH 272354
MTRP92
METAR KP92 272353Z AUTO 25006KT 17/12 A3004 RMK AO1 SLP171 P0002
60009 T01720122 10194 20172 55000





000
SAUS44 KLCH 272254
MTRP92
METAR KP92 272253Z AUTO 26007KT 19/11 A3003 RMK AO1 SLP169 P0001
T01890106





000
SAUS44 KLCH 272254
MTRP92
METAR KP92 272253Z AUTO 26007KT 19/11 A3003 RMK AO1 SLP169 P0001
T01890106





000
SAUS44 KLCH 272154
MTRP92
METAR KP92 272153Z AUTO VRB05KT 19/10 A3003 RMK AO1 SLP170 P0002
T01890100





000
SAUS44 KLCH 272055
MTRP92
METAR KP92 272053Z AUTO 26006KT 18/09 A3004 RMK AO1 SLP172 P0002
60004 T01830094 58017





000
SAUS44 KLCH 271954
MTRP92
METAR KP92 271953Z AUTO 28008KT 19/08 A3006 RMK AO1 SLP178 P0001
T01890083





000
SAUS44 KLCH 271954
MTRP92
METAR KP92 271953Z AUTO 28008KT 19/08 A3006 RMK AO1 SLP178 P0001
T01890083





000
SAUS44 KLCH 271857 COR
MTRP92
METAR KP92 271853Z AUTO 28010KT 18/07 A3008 RMK AO1 SLP185 P0001
T01830067





000
SAUS44 KLCH 271857 COR
MTRP92
METAR KP92 271853Z AUTO 28010KT 18/07 A3008 RMK AO1 SLP185 P0001
T01830067





000
SAUS44 KLCH 271755
MTRP92
METAR KP92 271753Z AUTO 29006KT 18/06 A3009 RMK AO1 SLP188 P0001
60008 T01830056 10183 20094 58003





000
SAUS44 KLCH 271755
MTRP92
METAR KP92 271753Z AUTO 29006KT 18/06 A3009 RMK AO1 SLP188 P0001
60008 T01830056 10183 20094 58003





000
SAUS44 KLCH 271655
MTRP92
METAR KP92 271653Z AUTO 35009G17KT 17/03 A3010 RMK AO1 SLP193 P0001
T01720033





000
SAUS44 KLCH 271555
MTRP92
METAR KP92 271553Z AUTO 35010G17KT 15/03 A3010 RMK AO1 SLP193 P0002
T01500033





000
SAUS44 KLCH 271455
MTRP92
METAR KP92 271453Z AUTO 36013G19KT 13/02 A3010 RMK AO1 SLP192 P0001
60004 T01330017 53018





000
SAUS44 KLCH 271455
MTRP92
METAR KP92 271453Z AUTO 36013G19KT 13/02 A3010 RMK AO1 SLP192 P0001
60004 T01330017 53018





000
SAUS44 KLCH 271355
MTRP92
METAR KP92 271353Z AUTO 36008KT 340V040 12/04 A3008 RMK AO1 SLP184
P0001 T01170039





000
SAUS44 KLCH 271254
MTRP92
METAR KP92 271253Z AUTO 35005KT 10/06 A3006 RMK AO1 SLP180 P0002
T01000056





000
SAUS44 KLCH 271154
MTRP92
METAR KP92 271153Z AUTO 34005KT 09/07 A3005 RMK AO1 SLP174 P0001
60009 70055 T00940072 10139 20094 53019





000
SAUS44 KLCH 271154
MTRP92
METAR KP92 271153Z AUTO 34005KT 09/07 A3005 RMK AO1 SLP174 P0001
60009 70055 T00940072 10139 20094 53019





000
SAUS44 KLCH 271054
MTRP92
METAR KP92 271053Z AUTO 34005KT 11/07 A3003 RMK AO1 SLP168 P0002
T01060072





000
SAUS44 KLCH 271054
MTRP92
METAR KP92 271053Z AUTO 34005KT 11/07 A3003 RMK AO1 SLP168 P0002
T01060072





000
SAUS44 KLCH 270954
MTRP92
METAR KP92 270953Z AUTO 34008KT 310V020 12/09 A3000 RMK AO1 SLP160
P0001 T01220089





000
SAUS44 KLCH 270854
MTRP92
METAR KP92 270853Z AUTO 35008KT 13/09 A2999 RMK AO1 SLP155 P0002
60005 T01280094 51012





000
SAUS44 KLCH 270854
MTRP92
METAR KP92 270853Z AUTO 35008KT 13/09 A2999 RMK AO1 SLP155 P0002
60005 T01280094 51012





000
SAUS44 KLCH 270754
MTRP92
METAR KP92 270753Z AUTO VRB06KT 13/09 A2998 RMK AO1 SLP151 P0001
T01280094





000
SAUS44 KLCH 270754
MTRP92
METAR KP92 270753Z AUTO VRB06KT 13/09 A2998 RMK AO1 SLP151 P0001
T01280094





000
SAUS44 KLCH 270654
MTRP92
METAR KP92 270653Z AUTO 34007KT 13/11 A2997 RMK AO1 SLP148 P0002
T01330111





000
SAUS44 KLCH 270654
MTRP92
METAR KP92 270653Z AUTO 34007KT 13/11 A2997 RMK AO1 SLP148 P0002
T01330111





000
SAUS44 KLCH 270556 COR
MTRP92
METAR KP92 270553Z AUTO 36009G16KT 14/11 A2995 RMK AO1 SLP143 P0002
60014 T01390111 10189 20139 402000139 50012





000
SAUS44 KLCH 270556 COR
MTRP92
METAR KP92 270553Z AUTO 36009G16KT 14/11 A2995 RMK AO1 SLP143 P0002
60014 T01390111 10189 20139 402000139 50012





000
SAUS44 KLCH 270555 COR
MTRP92
METAR KP92 270553Z AUTO 36009G16KT 14/11 A2995 RMK AO1 SLP143 P0002
60014 T01390111 10189 20139 402000139 50012





000
SAUS44 KLCH 270555 COR
MTRP92
METAR KP92 270553Z AUTO 36009G16KT 14/11 A2995 RMK AO1 SLP143 P0002
60014 T01390111 10189 20139 402000139 50012





000
SAUS44 KLCH 270455
MTRP92
METAR KP92 270453Z AUTO 35009G18KT 14/12 A2996 RMK AO1 SLP143 P0002
T01440122





000
SAUS44 KLCH 270455
MTRP92
METAR KP92 270453Z AUTO 35009G18KT 14/12 A2996 RMK AO1 SLP143 P0002
T01440122





000
SAUS44 KLCH 270354
MTRP92
METAR KP92 270353Z AUTO 35012G22KT 16/14 A2995 RMK AO1 SLP143 P0002
T01560139





000
SAUS44 KLCH 270354
MTRP92
METAR KP92 270353Z AUTO 35012G22KT 16/14 A2995 RMK AO1 SLP143 P0002
T01560139





000
SAUS44 KLCH 270254
MTRP92
METAR KP92 270253Z AUTO 35009G16KT 17/15 A2992 RMK AO1 SLP131 P0003
60008 T01670150 53021





000
SAUS44 KLCH 270254
MTRP92
METAR KP92 270253Z AUTO 35009G16KT 17/15 A2992 RMK AO1 SLP131 P0003
60008 T01670150 53021





000
SAUS44 KLCH 270155
MTRP92
METAR KP92 270153Z AUTO 34008G16KT 19/17 A2989 RMK AO1 SLP122 P0002
T01890172





000
SAUS44 KLCH 270155
MTRP92
METAR KP92 270153Z AUTO 34008G16KT 19/17 A2989 RMK AO1 SLP122 P0002
T01890172





000
SAUS44 KLCH 270055
MTRP92
METAR KP92 270053Z AUTO VRB03KT 17/17 A2987 RMK AO1 SLP115 P0003
T01720167





000
SAUS44 KLCH 270055
MTRP92
METAR KP92 270053Z AUTO VRB03KT 17/17 A2987 RMK AO1 SLP115 P0003
T01720167





000
SAUS44 KLCH 262354
MTRP92
METAR KP92 262353Z AUTO 00000KT 17/16 A2986 RMK AO1 SLP110 P0003
60022 T01720161 10178 20161 51015





000
SAUS44 KLCH 262354
MTRP92
METAR KP92 262353Z AUTO 00000KT 17/16 A2986 RMK AO1 SLP110 P0003
60022 T01720161 10178 20161 51015





000
SAUS44 KLCH 262254
MTRP92
METAR KP92 262253Z AUTO 21004KT 18/17 A2985 RMK AO1 SLP108 P0004
T01780167





000
SAUS44 KLCH 262154
MTRP92
METAR KP92 262153Z AUTO VRB03KT 17/16 A2985 RMK AO1 SLP108 P0004
T01670156





000
SAUS44 KLCH 262154
MTRP92
METAR KP92 262153Z AUTO VRB03KT 17/16 A2985 RMK AO1 SLP108 P0004
T01670156





000
SAUS44 KLCH 262054
MTRP92
METAR KP92 262053Z AUTO VRB03KT 17/17 A2981 RMK AO1 SLP095 P0004
60011 T01720167 58023





000
SAUS44 KLCH 261955
MTRP92
METAR KP92 261953Z AUTO 11006KT 17/17 A2985 RMK AO1 PRESFR SLP108
P0004 T01720167





000
SAUS44 KLCH 261854
MTRP92
METAR KP92 261853Z AUTO 16004KT 16/16 A2992 RMK AO1 SLP131 P0003
T01610161





000
SAUS44 KLCH 261854
MTRP92
METAR KP92 261853Z AUTO 16004KT 16/16 A2992 RMK AO1 SLP131 P0003
T01610161





000
SAUS44 KLCH 261755
MTRP92
METAR KP92 261753Z AUTO 12008KT 17/16 A2988 RMK AO1 PRESFR SLP119
P0004 60010 T01720161 10200 20161 58010





000
SAUS44 KLCH 261755
MTRP92
METAR KP92 261753Z AUTO 12008KT 17/16 A2988 RMK AO1 PRESFR SLP119
P0004 60010 T01720161 10200 20161 58010





000
SAUS44 KLCH 261655
MTRP92
METAR KP92 261653Z AUTO 12005KT 17/16 A2990 RMK AO1 PRESFR SLP126
P0004 T01670161





000
SAUS44 KLCH 261554
MTRP92
METAR KP92 261553Z AUTO 13009KT 16/16 A2992 RMK AO1 SLP130 P0002
T01610156





000
SAUS44 KLCH 261454
MTRP92
METAR KP92 261453Z AUTO 14007KT 19/17 A2991 RMK AO1 SLP128 T01890172
53010





000
SAUS44 KLCH 261454
MTRP92
METAR KP92 261453Z AUTO 14007KT 19/17 A2991 RMK AO1 SLP128 T01890172
53010





000
SAUS44 KLCH 261354
MTRP92
METAR KP92 261353Z AUTO 00000KT 19/17 A2989 RMK AO1 SLP122 T01890172





000
SAUS44 KLCH 261354
MTRP92
METAR KP92 261353Z AUTO 00000KT 19/17 A2989 RMK AO1 SLP122 T01890172





000
SAUS44 KLCH 261254
MTRP92
METAR KP92 261253Z AUTO 00000KT 19/19 A2990 RMK AO1 SLP124 T01940189





000
SAUS44 KLCH 261254
MTRP92
METAR KP92 261253Z AUTO 00000KT 19/19 A2990 RMK AO1 SLP124 T01940189





000
SAUS44 KLCH 261154
MTRP92
METAR KP92 261153Z AUTO 00000KT 19/19 A2988 RMK AO1 SLP118 70001
T01940194 10200 20183 53001 $





000
SAUS44 KLCH 261154
MTRP92
METAR KP92 261153Z AUTO 00000KT 19/19 A2988 RMK AO1 SLP118 70001
T01940194 10200 20183 53001 $





000
SAUS44 KLCH 261054
MTRP92
METAR KP92 261053Z AUTO 00000KT 20/19 A2988 RMK AO1 SLP118 T02000194
$





000
SAUS44 KLCH 261054
MTRP92
METAR KP92 261053Z AUTO 00000KT 20/19 A2988 RMK AO1 SLP118 T02000194
$





000
SAUS44 KLCH 260954
MTRP92
METAR KP92 260953Z AUTO 13004KT 19/18 A2986 RMK AO1 SLP110 T01890183
$





000
SAUS44 KLCH 260854
MTRP92
METAR KP92 260853Z AUTO 14003KT 18/18 A2988 RMK AO1 SLP117 T01830178
56014 $





000
SAUS44 KLCH 260854
MTRP92
METAR KP92 260853Z AUTO 14003KT 18/18 A2988 RMK AO1 SLP117 T01830178
56014 $





000
SAUS44 KLCH 260755
MTRP92
METAR KP92 260753Z AUTO 13004KT 19/18 A2988 RMK AO1 SLP117 T01940183
$





000
SAUS44 KLCH 260755
MTRP92
METAR KP92 260753Z AUTO 13004KT 19/18 A2988 RMK AO1 SLP117 T01940183
$





000
SAUS44 KLCH 260655
MTRP92
METAR KP92 260653Z AUTO 12005KT 19/18 A2990 RMK AO1 SLP125 T01940178
$





000
SAUS44 KLCH 260655
MTRP92
METAR KP92 260653Z AUTO 12005KT 19/18 A2990 RMK AO1 SLP125 T01940178
$





000
SAUS44 KLCH 260554
MTRP92
METAR KP92 260553Z AUTO 13005KT 19/18 A2992 RMK AO1 SLP131 T01940178
10206 20183 402440128 58017 $





000
SAUS44 KLCH 260554
MTRP92
METAR KP92 260553Z AUTO 13005KT 19/18 A2992 RMK AO1 SLP131 T01940178
10206 20183 402440128 58017 $





000
SAUS44 KLCH 260454
MTRP92
METAR KP92 260453Z AUTO 11004KT 18/17 A2994 RMK AO1 SLP137 T01830172
$





000
SAUS44 KLCH 260454
MTRP92
METAR KP92 260453Z AUTO 11004KT 18/17 A2994 RMK AO1 SLP137 T01830172
$





000
SAUS44 KLCH 260355
MTRP92
METAR KP92 260353Z AUTO 12004KT 18/17 A2996 RMK AO1 SLP146 T01830167
$





000
SAUS44 KLCH 260255
MTRP92
METAR KP92 260253Z AUTO 11003KT 19/17 A2997 RMK AO1 SLP148 T01890167
55001





000
SAUS44 KLCH 260255
MTRP92
METAR KP92 260253Z AUTO 11003KT 19/17 A2997 RMK AO1 SLP148 T01890167
55001





000
SAUS44 KLCH 260154
MTRP92
METAR KP92 260153Z AUTO 12004KT 19/16 A2997 RMK AO1 SLP146 T01940161





000
SAUS44 KLCH 260154
MTRP92
METAR KP92 260153Z AUTO 12004KT 19/16 A2997 RMK AO1 SLP146 T01940161





000
SAUS44 KLCH 260055
MTRP92
METAR KP92 260053Z AUTO 00000KT 19/16 A2996 RMK AO1 SLP146 T01940156





000
SAUS44 KLCH 252355
MTRP92
METAR KP92 252353Z AUTO 14003KT 21/16 A2997 RMK AO1 SLP149 T02060161
10244 20206 55007





000
SAUS44 KLCH 252355
MTRP92
METAR KP92 252353Z AUTO 14003KT 21/16 A2997 RMK AO1 SLP149 T02060161
10244 20206 55007





000
SAUS44 KLCH 252255
MTRP92
METAR KP92 252253Z AUTO VRB03KT 22/16 A2997 RMK AO1 SLP149 T02170156





000
SAUS44 KLCH 252155
MTRP92
METAR KP92 252153Z AUTO VRB03KT 24/15 A2998 RMK AO1 SLP152 T02390150





000
SAUS44 KLCH 252055
MTRP92
METAR KP92 252053Z AUTO VRB04KT 23/15 A2999 RMK AO1 SLP156 T02330150





000
SAUS44 KLCH 251955
MTRP92
METAR KP92 251953Z AUTO VRB03KT 24/15 A3001 RMK AO1 SLP162 T02390150





000
SAUS44 KLCH 251955
MTRP92
METAR KP92 251953Z AUTO VRB03KT 24/15 A3001 RMK AO1 SLP162 T02390150





000
SAUS44 KLCH 251854
MTRP92
METAR KP92 251853Z AUTO 13006KT 23/13 A3003 RMK AO1 SLP168 T02330133





000
SAUS44 KLCH 251854
MTRP92
METAR KP92 251853Z AUTO 13006KT 23/13 A3003 RMK AO1 SLP168 T02330133





000
SAUS44 KLCH 251755
MTRP92
METAR KP92 251753Z AUTO VRB05KT 23/14 A3005 RMK AO1 SLP175 60001
T02280139 10233 20128 58007





000
SAUS44 KLCH 251755
MTRP92
METAR KP92 251753Z AUTO VRB05KT 23/14 A3005 RMK AO1 SLP175 60001
T02280139 10233 20128 58007





000
SAUS44 KLCH 251654
MTRP92
METAR KP92 251653Z AUTO VRB03KT 23/14 A3007 RMK AO1 SLP182 T02280139





000
SAUS44 KLCH 251554
MTRP92
METAR KP92 251553Z AUTO VRB05KT 23/14 A3007 RMK AO1 SLP183 T02330144





000
SAUS44 KLCH 251455
MTRP92
METAR KP92 251453Z AUTO 00000KT 22/15 A3007 RMK AO1 SLP182 60001
T02220150 52009





000
SAUS44 KLCH 251356
MTRP92
METAR KP92 251353Z AUTO 11003KT 18/16 A3006 RMK AO1 SLP180 P0001
T01830156





000
SAUS44 KLCH 251255
MTRP92
METAR KP92 251253Z AUTO 00000KT 14/13 A3005 RMK AO1 SLP174 T01390133





000
SAUS44 KLCH 251255
MTRP92
METAR KP92 251253Z AUTO 00000KT 14/13 A3005 RMK AO1 SLP174 T01390133





    US Dept of Commerce
    National Oceanic and Atmospheric Administration
    National Weather Service
    1325 East West Highway
    Silver Spring, MD 20910
    Page Author: NWS Internet Services Team
Disclaimer
Information Quality
Credits
Glossary
Privacy Policy
Freedom of Information Act (FOIA)
About Us
Career Opportunities